createdAt,value
2022-08-18T00:00:19.951Z,59.59
2022-08-18T00:03:15.830Z,59.84
2022-08-18T00:06:03.616Z,59.86
2022-08-18T00:08:38.516Z,60.14
2022-08-18T00:11:10.963Z,60.06
2022-08-18T00:13:43.248Z,59.51
2022-08-18T00:16:15.469Z,59.83
2022-08-18T00:18:47.508Z,60.22
2022-08-18T00:21:20.425Z,60.39
2022-08-18T00:23:52.893Z,60.38
2022-08-18T00:26:25.254Z,60.60
2022-08-18T00:28:57.508Z,60.49
2022-08-18T00:31:30.165Z,60.17
2022-08-18T00:34:02.257Z,60.54
2022-08-18T00:36:35.122Z,60.48
2022-08-18T00:39:07.341Z,60.72
2022-08-18T00:41:39.902Z,60.74
2022-08-18T00:44:12.478Z,60.57
2022-08-18T00:46:44.735Z,60.73
2022-08-18T00:49:18.486Z,60.88
2022-08-18T00:51:53.693Z,60.77
2022-08-18T00:54:28.676Z,60.90
2022-08-18T00:57:03.576Z,60.91
2022-08-18T00:59:42.659Z,61.11
2022-08-18T01:02:22.647Z,61.38
2022-08-18T01:05:01.421Z,61.33
2022-08-18T01:07:37.701Z,61.54
2022-08-18T01:10:11.206Z,61.80
2022-08-18T01:12:45.200Z,61.80
2022-08-18T01:15:28.289Z,61.44
2022-08-18T01:18:19.031Z,61.78
2022-08-18T01:21:18.084Z,61.56
2022-08-18T01:23:52.075Z,61.75
2022-08-18T01:26:28.215Z,61.68
2022-08-18T01:29:10.636Z,61.89
2022-08-18T01:31:53.339Z,61.76
2022-08-18T01:34:28.732Z,61.83
2022-08-18T01:37:01.255Z,61.58
2022-08-18T01:41:22.676Z,61.52
2022-08-18T01:42:26.091Z,61.85
2022-08-18T01:44:58.384Z,61.92
2022-08-18T01:47:31.382Z,61.62
2022-08-18T01:50:20.655Z,61.99
2022-08-18T01:52:53.826Z,62.05
2022-08-18T01:55:28.402Z,62.09
2022-08-18T01:58:01.542Z,62.22
2022-08-18T02:00:33.772Z,62.79
2022-08-18T02:03:10.694Z,63.12
2022-08-18T02:05:49.254Z,63.39
2022-08-18T02:08:23.358Z,63.84
2022-08-18T02:11:00.146Z,63.94
2022-08-18T02:13:33.005Z,64.29
2022-08-18T02:16:05.834Z,64.50
2022-08-18T02:18:47.515Z,64.50
2022-08-18T02:21:23.306Z,64.80
2022-08-18T02:23:54.170Z,64.88
2022-08-18T02:26:26.376Z,64.90
2022-08-18T02:28:58.500Z,64.96
2022-08-18T02:31:30.564Z,64.67
2022-08-18T02:34:02.835Z,64.71
2022-08-18T02:36:35.033Z,65.10
2022-08-18T02:39:07.289Z,65.47
2022-08-18T02:41:39.287Z,65.67
2022-08-18T02:44:12.561Z,65.74
2022-08-18T02:46:44.592Z,66.08
2022-08-18T02:49:16.844Z,66.28
2022-08-18T02:51:49.746Z,66.34
2022-08-18T02:54:23.542Z,66.68
2022-08-18T02:56:57.287Z,66.71
2022-08-18T02:59:32.058Z,66.98
2022-08-18T03:02:07.544Z,67.21
2022-08-18T03:04:39.572Z,67.31
2022-08-18T03:07:11.999Z,67.04
2022-08-18T03:09:44.417Z,67.14
2022-08-18T03:12:16.753Z,66.85
2022-08-18T03:14:49.527Z,66.98
2022-08-18T03:17:21.626Z,66.93
2022-08-18T03:19:53.944Z,67.42
2022-08-18T03:22:29.567Z,67.48
2022-08-18T03:25:03.199Z,67.77
2022-08-18T03:27:35.242Z,67.60
2022-08-18T03:30:11.337Z,67.70
2022-08-18T03:32:45.714Z,68.10
2022-08-18T03:35:18.983Z,68.29
2022-08-18T03:37:51.357Z,68.42
2022-08-18T03:40:23.907Z,68.66
2022-08-18T03:42:56.540Z,68.90
2022-08-18T03:45:32.092Z,68.92
2022-08-18T03:48:05.300Z,69.19
2022-08-18T03:50:38.073Z,69.34
2022-08-18T03:53:11.367Z,69.54
2022-08-18T03:55:44.698Z,69.65
2022-08-18T03:58:16.693Z,69.70
2022-08-18T04:00:48.837Z,69.32
2022-08-18T04:03:20.855Z,69.27
2022-08-18T04:05:53.605Z,69.18
2022-08-18T04:08:25.871Z,69.31
2022-08-18T04:10:57.909Z,69.64
2022-08-18T04:13:30.140Z,69.94
2022-08-18T04:16:03.725Z,70.03
2022-08-18T04:18:36.467Z,70.12
2022-08-18T04:21:14.864Z,70.22
2022-08-18T04:23:46.959Z,70.15
2022-08-18T04:26:20.304Z,70.03
2022-08-18T04:28:52.482Z,69.90
2022-08-18T04:31:26.536Z,70.00
2022-08-18T04:34:00.620Z,69.99
2022-08-18T04:36:35.216Z,70.48
2022-08-18T04:39:07.202Z,70.64
2022-08-18T04:41:41.177Z,70.80
2022-08-18T04:44:17.288Z,70.72
2022-08-18T04:46:51.979Z,70.92
2022-08-18T04:49:26.543Z,71.02
2022-08-18T04:52:32.006Z,71.23
2022-08-18T04:55:08.119Z,71.33
2022-08-18T04:57:42.664Z,71.58
2022-08-18T05:00:15.475Z,71.97
2022-08-18T05:02:47.561Z,71.93
2022-08-18T05:05:19.829Z,71.81
2022-08-18T05:07:52.127Z,72.05
2022-08-18T05:10:24.435Z,72.41
2022-08-18T05:12:57.567Z,72.62
2022-08-18T05:15:38.418Z,72.47
2022-08-18T05:18:24.465Z,72.50
2022-08-18T05:21:01.398Z,72.58
2022-08-18T05:23:36.229Z,72.38
2022-08-18T05:26:08.814Z,72.39
2022-08-18T05:28:40.944Z,71.96
2022-08-18T05:31:14.662Z,72.38
2022-08-18T05:33:47.921Z,72.20
2022-08-18T05:36:38.035Z,71.97
2022-08-18T05:39:16.954Z,72.17
2022-08-18T05:41:53.209Z,72.54
2022-08-18T05:44:29.854Z,71.84
2022-08-18T05:47:06.666Z,72.15
2022-08-18T05:49:39.789Z,72.31
2022-08-18T05:53:56.290Z,72.50
2022-08-18T05:56:48.286Z,72.57
2022-08-18T05:59:26.477Z,72.56
2022-08-18T06:02:05.614Z,72.22
2022-08-18T06:04:45.388Z,71.65
2022-08-18T06:07:25.216Z,71.47
2022-08-18T06:09:58.051Z,71.55
2022-08-18T06:12:37.636Z,71.72
2022-08-18T06:15:16.253Z,71.96
2022-08-18T06:18:17.584Z,72.61
2022-08-18T06:21:18.541Z,72.36
2022-08-18T06:23:57.867Z,71.67
2022-08-18T06:26:41.370Z,71.80
2022-08-18T06:29:25.176Z,71.98
2022-08-18T06:32:07.565Z,71.39
2022-08-18T06:34:57.542Z,71.44
2022-08-18T06:37:35.376Z,71.52
2022-08-18T06:40:09.572Z,71.49
2022-08-18T06:42:41.884Z,71.39
2022-08-18T06:45:18.411Z,71.51
2022-08-18T06:47:58.450Z,72.03
2022-08-18T06:50:35.326Z,71.38
2022-08-18T06:53:19.066Z,71.29
2022-08-18T06:55:59.791Z,70.96
2022-08-18T06:58:33.063Z,70.57
2022-08-18T07:01:09.095Z,70.74
2022-08-18T07:03:50.472Z,70.53
2022-08-18T07:06:32.670Z,70.60
2022-08-18T07:09:29.905Z,70.34
2022-08-18T07:12:09.372Z,70.22
2022-08-18T07:14:47.719Z,69.41
2022-08-18T07:17:42.134Z,69.65
2022-08-18T07:20:26.570Z,69.64
2022-08-18T07:23:02.113Z,68.92
2022-08-18T07:25:44.311Z,68.60
2022-08-18T07:28:31.631Z,68.77
2022-08-18T07:31:20.554Z,68.18
2022-08-18T07:33:57.684Z,67.28
2022-08-18T07:36:34.604Z,65.75
2022-08-18T07:39:12.857Z,66.38
2022-08-18T07:41:53.789Z,66.16
2022-08-18T07:44:41.800Z,65.58
2022-08-18T07:47:19.654Z,65.56
2022-08-18T07:50:17.051Z,64.89
2022-08-18T07:53:04.175Z,64.24
2022-08-18T07:55:45.255Z,63.93
2022-08-18T07:58:39.000Z,63.84
2022-08-18T08:01:19.962Z,63.93
2022-08-18T08:04:00.553Z,63.12
2022-08-18T08:06:40.294Z,64.14
2022-08-18T08:09:22.648Z,64.39
2022-08-18T08:12:01.340Z,64.70
2022-08-18T08:14:42.392Z,63.64
2022-08-18T08:17:25.986Z,63.38
2022-08-18T08:20:11.012Z,62.21
2022-08-18T08:22:48.105Z,62.78
2022-08-18T08:28:27.642Z,59.91
2022-08-18T08:31:35.425Z,59.56
2022-08-18T08:34:13.350Z,58.53
2022-08-18T08:36:48.819Z,59.29
2022-08-18T08:39:26.235Z,58.32
2022-08-18T08:42:30.176Z,58.05
2022-08-18T08:45:01.055Z,57.94
2022-08-18T08:47:38.224Z,56.96
2022-08-18T08:50:14.573Z,56.50
2022-08-18T08:52:56.658Z,55.80
2022-08-18T08:55:33.739Z,55.93
2022-08-18T08:58:18.543Z,56.11
2022-08-18T09:00:52.582Z,55.58
2022-08-18T09:03:41.689Z,54.59
2022-08-18T09:06:31.503Z,55.03
2022-08-18T09:09:24.247Z,54.57
2022-08-18T09:12:28.493Z,54.66
2022-08-18T09:15:34.179Z,55.39
2022-08-18T09:18:14.475Z,53.96
2022-08-18T09:21:07.807Z,52.48
2022-08-18T09:23:44.792Z,51.37
2022-08-18T09:26:41.038Z,52.56
2022-08-18T09:29:28.685Z,51.57
2022-08-18T09:32:35.706Z,51.37
2022-08-18T09:38:36.094Z,51.06
2022-08-18T09:41:31.460Z,50.76
2022-08-18T09:44:21.208Z,47.86
2022-08-18T09:47:03.015Z,49.46
2022-08-18T09:59:02.729Z,47.32
2022-08-18T10:01:43.248Z,46.85
2022-08-18T10:04:34.065Z,47.45
2022-08-18T10:10:59.951Z,43.78
2022-08-18T10:13:29.686Z,46.72
2022-08-18T10:16:14.413Z,46.27
2022-08-18T10:19:08.113Z,46.29
2022-08-18T10:22:13.179Z,44.80
2022-08-18T10:24:57.315Z,43.91
2022-08-18T10:27:50.643Z,44.87
2022-08-18T10:30:56.614Z,45.23
2022-08-18T10:34:24.653Z,43.32
2022-08-18T10:36:59.946Z,44.09
2022-08-18T10:39:50.060Z,43.25
2022-08-18T10:42:31.195Z,43.99
2022-08-18T10:45:12.066Z,43.13
2022-08-18T10:47:45.112Z,43.80
2022-08-18T10:50:24.413Z,43.16
2022-08-18T10:56:12.817Z,42.53
2022-08-18T10:58:59.787Z,42.58
2022-08-18T11:01:47.304Z,41.93
2022-08-18T11:04:34.738Z,40.62
2022-08-18T11:07:14.696Z,39.38
2022-08-18T11:13:08.749Z,40.09
2022-08-18T11:15:57.326Z,39.94
2022-08-18T11:21:42.686Z,40.33
2022-08-18T11:24:21.194Z,41.28
2022-08-18T11:26:56.201Z,41.84
2022-08-18T11:29:32.786Z,39.94
2022-08-18T11:32:11.211Z,39.59
2022-08-18T11:34:53.061Z,40.13
2022-08-18T11:37:48.951Z,41.01
2022-08-18T11:43:39.153Z,40.98
2022-08-18T11:46:27.885Z,39.56
2022-08-18T11:49:15.548Z,39.86
2022-08-18T11:52:03.156Z,39.71
2022-08-18T11:57:46.756Z,38.65
2022-08-18T12:00:54.887Z,38.84
2022-08-18T12:03:37.936Z,39.35
2022-08-18T12:06:26.856Z,39.09
2022-08-18T12:09:04.022Z,38.12
2022-08-18T12:11:41.173Z,37.95
2022-08-18T12:14:30.252Z,36.95
2022-08-18T12:17:10.559Z,36.79
2022-08-18T12:19:43.078Z,37.46
2022-08-18T12:22:20.395Z,37.21
2022-08-18T12:24:54.796Z,37.64
2022-08-18T12:27:32.085Z,37.68
2022-08-18T12:30:07.049Z,37.39
2022-08-18T12:32:55.513Z,37.00
2022-08-18T12:35:28.917Z,36.31
2022-08-18T12:38:11.326Z,37.23
2022-08-18T12:40:46.485Z,37.13
2022-08-18T12:43:18.611Z,36.53
2022-08-18T12:45:52.793Z,37.06
2022-08-18T12:48:26.777Z,37.72
2022-08-18T12:51:00.888Z,37.70
2022-08-18T12:53:58.517Z,36.97
2022-08-18T12:56:32.319Z,36.55
2022-08-18T12:59:07.529Z,36.44
2022-08-18T13:01:41.378Z,37.04
2022-08-18T13:04:18.672Z,36.66
2022-08-18T13:07:00.527Z,36.40
2022-08-18T13:09:52.613Z,36.78
2022-08-18T13:12:27.487Z,37.18
2022-08-18T13:14:59.818Z,36.86
2022-08-18T13:17:33.768Z,36.26
2022-08-18T13:20:10.655Z,36.40
2022-08-18T13:22:45.919Z,36.69
2022-08-18T13:25:33.203Z,36.61
2022-08-18T13:28:12.189Z,36.71
2022-08-18T13:30:46.800Z,36.22
2022-08-18T13:33:34.716Z,35.82
2022-08-18T13:36:12.132Z,36.58
2022-08-18T13:38:44.473Z,36.18
2022-08-18T13:41:17.101Z,36.29
2022-08-18T13:43:50.605Z,36.81
2022-08-18T13:46:31.252Z,36.55
2022-08-18T13:49:05.325Z,36.45
2022-08-18T13:51:38.573Z,36.96
2022-08-18T13:54:30.827Z,36.89
2022-08-18T13:57:05.415Z,36.52
2022-08-18T13:59:46.659Z,37.01
2022-08-18T14:02:19.423Z,37.05
2022-08-18T14:04:59.224Z,38.14
2022-08-18T14:07:32.049Z,38.34
2022-08-18T14:10:10.681Z,37.58
2022-08-18T14:12:46.048Z,37.26
2022-08-18T14:15:19.186Z,36.20
2022-08-18T14:17:57.221Z,36.90
2022-08-18T14:20:59.017Z,36.57
2022-08-18T14:24:00.844Z,35.78
2022-08-18T14:26:51.297Z,34.95
2022-08-18T14:29:43.016Z,35.57
2022-08-18T14:32:18.067Z,35.17
2022-08-18T14:34:59.994Z,35.20
2022-08-18T14:37:34.007Z,36.21
2022-08-18T14:40:14.082Z,36.90
2022-08-18T14:43:02.492Z,38.20
2022-08-18T14:45:49.163Z,39.55
2022-08-18T14:48:23.329Z,37.41
2022-08-18T14:50:55.556Z,36.36
2022-08-18T14:53:30.173Z,36.89
2022-08-18T14:56:03.038Z,37.38
2022-08-18T14:58:35.962Z,38.19
2022-08-18T15:01:13.367Z,38.72
2022-08-18T15:03:49.086Z,39.79
2022-08-18T15:06:23.021Z,39.97
2022-08-18T15:08:59.363Z,41.01
2022-08-18T15:11:33.676Z,41.41
2022-08-18T15:14:06.353Z,41.65
2022-08-18T15:16:39.902Z,41.91
2022-08-18T15:20:00.496Z,41.94
2022-08-18T15:22:22.969Z,42.23
2022-08-18T15:25:12.603Z,41.75
2022-08-18T15:27:44.968Z,42.01
2022-08-18T15:30:19.516Z,42.24
2022-08-18T15:32:59.658Z,42.03
2022-08-18T15:35:35.722Z,41.87
2022-08-18T15:38:12.624Z,43.18
2022-08-18T15:40:52.962Z,43.63
2022-08-18T15:43:35.503Z,44.26
2022-08-18T15:46:22.657Z,44.38
2022-08-18T15:48:59.777Z,43.84
2022-08-18T15:51:40.963Z,43.66
2022-08-18T15:54:14.512Z,42.35
2022-08-18T15:56:58.458Z,42.22
2022-08-18T15:59:34.022Z,42.17
2022-08-18T16:02:19.280Z,42.27
2022-08-18T16:04:53.374Z,42.36
2022-08-18T16:07:40.963Z,42.48
2022-08-18T16:10:20.428Z,42.34
2022-08-18T16:12:53.117Z,42.85
2022-08-18T16:15:26.863Z,42.19
2022-08-18T16:17:59.188Z,42.48
2022-08-18T16:20:31.310Z,42.51
2022-08-18T16:23:03.694Z,42.51
2022-08-18T16:25:38.427Z,42.98
2022-08-18T16:28:09.355Z,43.05
2022-08-18T16:30:42.114Z,41.80
2022-08-18T16:33:14.114Z,41.37
2022-08-18T16:35:47.804Z,41.42
2022-08-18T16:38:21.520Z,41.70
2022-08-18T16:40:53.611Z,42.71
2022-08-18T16:43:27.268Z,42.67
2022-08-18T16:45:59.787Z,42.80
2022-08-18T16:48:33.006Z,42.65
2022-08-18T16:51:05.976Z,42.90
2022-08-18T16:53:40.051Z,43.53
2022-08-18T16:56:18.674Z,43.35
2022-08-18T16:59:08.930Z,43.58
2022-08-18T17:01:59.053Z,43.28
2022-08-18T17:04:34.593Z,43.16
2022-08-18T17:07:08.173Z,43.62
2022-08-18T17:09:40.452Z,44.59
2022-08-18T17:12:12.979Z,45.29
2022-08-18T17:14:45.027Z,45.49
2022-08-18T17:17:18.815Z,45.73
2022-08-18T17:19:52.026Z,45.69
2022-08-18T17:22:24.937Z,46.27
2022-08-18T17:25:02.957Z,45.82
2022-08-18T17:27:37.744Z,46.26
2022-08-18T17:30:16.007Z,46.08
2022-08-18T17:32:52.754Z,45.91
2022-08-18T17:35:29.469Z,46.13
2022-08-18T17:38:06.932Z,45.78
2022-08-18T17:40:45.050Z,45.31
2022-08-18T17:43:19.411Z,45.81
2022-08-18T17:45:57.228Z,46.05
2022-08-18T17:48:33.639Z,46.73
2022-08-18T17:51:44.811Z,46.19
2022-08-18T17:54:37.104Z,46.42
2022-08-18T17:57:14.627Z,47.13
2022-08-18T17:59:58.383Z,47.08
2022-08-18T18:02:35.125Z,46.87
2022-08-18T18:05:11.180Z,47.78
2022-08-18T18:07:58.700Z,48.35
2022-08-18T18:11:02.251Z,48.47
2022-08-18T18:13:35.658Z,48.22
2022-08-18T18:16:29.124Z,48.35
2022-08-18T18:19:06.087Z,48.62
2022-08-18T18:21:57.592Z,48.64
2022-08-18T18:24:34.908Z,48.03
2022-08-18T18:27:27.139Z,48.78
2022-08-18T18:30:03.173Z,48.69
2022-08-18T18:32:38.958Z,48.75
2022-08-18T18:35:18.026Z,49.09
2022-08-18T18:37:54.916Z,49.24
2022-08-18T18:40:31.744Z,50.40
2022-08-18T18:43:23.244Z,53.42
2022-08-18T18:46:23.598Z,53.78
2022-08-18T18:49:14.683Z,53.60
2022-08-18T18:51:57.860Z,53.46
2022-08-18T18:54:49.920Z,53.85
2022-08-18T18:57:32.114Z,52.95
2022-08-18T19:00:18.319Z,52.66
2022-08-18T19:03:03.974Z,52.19
2022-08-18T19:05:39.915Z,51.62
2022-08-18T19:08:26.526Z,52.07
2022-08-18T19:11:03.296Z,52.76
2022-08-18T19:13:42.379Z,53.83
2022-08-18T19:16:24.309Z,54.48
2022-08-18T19:19:35.607Z,54.22
2022-08-18T19:22:06.434Z,54.48
2022-08-18T19:24:46.057Z,54.47
2022-08-18T19:27:26.897Z,54.76
2022-08-18T19:30:08.880Z,54.68
2022-08-18T19:32:45.009Z,55.04
2022-08-18T19:35:20.880Z,55.54
2022-08-18T19:38:04.809Z,55.36
2022-08-18T19:40:46.955Z,55.27
2022-08-18T19:43:27.697Z,55.02
2022-08-18T19:46:10.575Z,55.42
2022-08-18T19:48:52.905Z,55.15
2022-08-18T19:51:34.332Z,54.96
2022-08-18T19:54:34.803Z,54.18
2022-08-18T19:57:23.535Z,54.34
2022-08-18T20:00:25.839Z,53.69
2022-08-18T20:03:45.931Z,53.65
2022-08-18T20:06:45.131Z,53.25
2022-08-18T20:09:29.416Z,53.49
2022-08-18T20:15:17.182Z,53.75
2022-08-18T20:18:22.319Z,53.93
2022-08-18T20:21:39.855Z,53.70
2022-08-18T20:24:32.752Z,53.57
2022-08-18T20:27:35.311Z,53.81
2022-08-18T20:30:28.510Z,53.64
2022-08-18T20:33:19.126Z,53.64
2022-08-18T20:36:10.757Z,53.88
2022-08-18T20:38:45.716Z,53.63
2022-08-18T20:41:52.017Z,53.79
2022-08-18T20:44:50.751Z,53.96
2022-08-18T20:47:42.994Z,54.24
2022-08-18T20:50:44.643Z,54.07
2022-08-18T20:53:49.935Z,54.74
2022-08-18T20:56:32.584Z,54.78
2022-08-18T20:59:23.740Z,55.10
2022-08-18T21:02:05.018Z,54.86
2022-08-18T21:04:45.731Z,54.77
2022-08-18T21:07:37.194Z,54.79
2022-08-18T21:10:19.453Z,54.65
2022-08-18T21:12:54.951Z,55.37
2022-08-18T21:15:31.404Z,56.01
2022-08-18T21:18:06.145Z,55.94
2022-08-18T21:20:38.313Z,55.59
2022-08-18T21:23:12.658Z,55.55
2022-08-18T21:25:56.950Z,55.90
2022-08-18T21:28:34.990Z,55.92
2022-08-18T21:31:41.677Z,55.96
2022-08-18T21:34:05.826Z,56.21
2022-08-18T21:36:40.295Z,56.25
2022-08-18T21:39:18.267Z,56.08
2022-08-18T21:41:53.285Z,56.44
2022-08-18T21:44:41.748Z,56.56
2022-08-18T21:47:26.018Z,56.51
2022-08-18T21:50:10.757Z,56.78
2022-08-18T21:52:53.205Z,56.48
2022-08-18T21:55:31.856Z,56.63
2022-08-18T21:58:09.100Z,56.80
2022-08-18T22:00:43.984Z,56.86
2022-08-18T22:03:18.638Z,56.94
2022-08-18T22:06:00.052Z,57.01
2022-08-18T22:08:46.556Z,57.08
2022-08-18T22:12:00.988Z,57.18
2022-08-18T22:14:54.994Z,57.29
2022-08-18T22:17:35.085Z,57.42
2022-08-18T22:20:35.334Z,57.65
2022-08-18T22:23:35.802Z,57.73
2022-08-18T22:26:15.189Z,57.74
2022-08-18T22:28:55.291Z,57.70
2022-08-18T22:31:29.829Z,57.57
2022-08-18T22:34:07.392Z,57.78
2022-08-18T22:36:42.707Z,57.87
2022-08-18T22:39:19.869Z,58.11
2022-08-18T22:41:55.054Z,58.07
2022-08-18T22:44:27.539Z,58.02
2022-08-18T22:47:00.342Z,58.16
2022-08-18T22:49:35.971Z,58.31
2022-08-18T22:52:14.059Z,58.46
2022-08-18T22:54:46.271Z,58.63
2022-08-18T22:57:23.616Z,58.45
2022-08-18T22:59:56.340Z,58.66
2022-08-18T23:02:30.616Z,58.47
2022-08-18T23:05:03.455Z,59.00
2022-08-18T23:07:35.800Z,58.81
2022-08-18T23:10:13.531Z,58.88
2022-08-18T23:12:47.590Z,58.99
2022-08-18T23:15:20.640Z,59.29
2022-08-18T23:17:52.857Z,59.18
2022-08-18T23:20:26.655Z,59.30
2022-08-18T23:22:59.007Z,59.24
2022-08-18T23:25:32.631Z,59.26
2022-08-18T23:28:09.627Z,59.34
2022-08-18T23:30:44.644Z,59.55
2022-08-18T23:33:17.644Z,59.54
2022-08-18T23:35:50.537Z,59.77
2022-08-18T23:38:23.025Z,60.09
2022-08-18T23:41:05.873Z,60.16
2022-08-18T23:43:38.423Z,60.15
2022-08-18T23:46:18.644Z,60.63
2022-08-18T23:48:51.709Z,60.30
2022-08-18T23:51:29.958Z,60.32
2022-08-18T23:54:03.992Z,60.40
2022-08-18T23:56:37.847Z,60.26
2022-08-18T23:59:11.384Z,60.42
